Briefing drone pour Saint-alban-leysse

Rechercher une autre localisation

Conditions de vol :


Nous sommes le : Mercredi 22 septembre 2021
Il est 20:00 UTC (22:00 LT)

Lever de soleil : 04:56 UTC (06:56 LT)
Coucher de soleil : 18:00 UTC (20:00 LT)

Météo

L'essentiel des conditions de vol

VIGILANCE MÉTÉO FRANCE - Savoie (73)
Pas de vigilances particulieres
METAR de LFLB
LFLB 221930Z AUTO VRB03KT CAVOK 14/11 Q1023

Date d'émission: 22/09/2021
Heure d'émission: 19:30 UTC
Vent: Variable 3 KT (6 km/h)
Visibilité horizontale: > 10 km
Plafond : Plafond et visibilité OK (CAVOK)
Température: 14 °C
Point de rosée: 11 °C
Humidité: 82%
Pression (QNH): 1023 hPa
TAF de LFLB
LFLB 221900Z 2219/2315 CNL

Conditions prévues :

Heure d'émission : Bulletin éffectué le 22 à 19:00 UTC
Prévision : Valide du 22 a 19:00 UTC au 23 a 15:00 UTC
Nuages : à 0ft (0 m)
WEBCAM POUR SAINT-ALBAN-LEYSSE

Réglementation

Voler en sécurité

CARTES AERONAUTIQUE 1/500.000
CARTES VAC (LFLB)
SUP AIP




Chargement des AIP...
NOTAM (SAINT-ALBAN-LEYSSE + Terrain à proximité / FIR )




Chargement des NOTAMS...
CONTACT PREFECTURE 73


Avertissement : Les données mises à disposition sont indicatives. Oxygène Drone ne pourra être tenu responsable de dégâts causés aux biens et aux personnes.